sensor_id;sensor_type;location;lat;lon;timestamp;temperature;humidity
19970;DHT22;10146;47.754;9.566;2023-09-19T00:02:03;15.10;99.90
19970;DHT22;10146;47.754;9.566;2023-09-19T00:04:32;15.10;99.90
19970;DHT22;10146;47.754;9.566;2023-09-19T00:07:01;15.10;99.90
19970;DHT22;10146;47.754;9.566;2023-09-19T00:09:28;15.10;99.90
19970;DHT22;10146;47.754;9.566;2023-09-19T00:11:53;15.10;99.90
19970;DHT22;10146;47.754;9.566;2023-09-19T00:14:20;15.10;99.90
19970;DHT22;10146;47.754;9.566;2023-09-19T00:16:45;15.00;99.90
19970;DHT22;10146;47.754;9.566;2023-09-19T00:19:12;15.00;99.90
19970;DHT22;10146;47.754;9.566;2023-09-19T00:21:38;15.00;99.90
19970;DHT22;10146;47.754;9.566;2023-09-19T00:24:04;15.00;99.90
19970;DHT22;10146;47.754;9.566;2023-09-19T00:26:32;15.00;99.90
19970;DHT22;10146;47.754;9.566;2023-09-19T00:28:59;15.10;99.90
19970;DHT22;10146;47.754;9.566;2023-09-19T00:31:31;15.00;99.90
19970;DHT22;10146;47.754;9.566;2023-09-19T00:33:57;15.10;99.90
19970;DHT22;10146;47.754;9.566;2023-09-19T00:36:27;15.10;99.90
19970;DHT22;10146;47.754;9.566;2023-09-19T00:38:54;15.20;99.90
19970;DHT22;10146;47.754;9.566;2023-09-19T00:41:20;15.30;99.90
19970;DHT22;10146;47.754;9.566;2023-09-19T00:43:46;15.30;99.90
19970;DHT22;10146;47.754;9.566;2023-09-19T00:46:16;15.30;99.90
19970;DHT22;10146;47.754;9.566;2023-09-19T00:48:42;15.40;99.90
19970;DHT22;10146;47.754;9.566;2023-09-19T00:51:11;15.50;99.90
19970;DHT22;10146;47.754;9.566;2023-09-19T00:53:39;15.50;99.90
19970;DHT22;10146;47.754;9.566;2023-09-19T00:56:05;15.60;99.90
19970;DHT22;10146;47.754;9.566;2023-09-19T00:58:32;15.50;99.90
19970;DHT22;10146;47.754;9.566;2023-09-19T01:00:59;15.50;99.90
19970;DHT22;10146;47.754;9.566;2023-09-19T01:03:25;15.50;99.90
19970;DHT22;10146;47.754;9.566;2023-09-19T01:05:50;15.50;99.90
19970;DHT22;10146;47.754;9.566;2023-09-19T01:08:16;15.60;99.90
19970;DHT22;10146;47.754;9.566;2023-09-19T01:11:21;15.60;99.90
19970;DHT22;10146;47.754;9.566;2023-09-19T01:14:01;15.60;99.90
19970;DHT22;10146;47.754;9.566;2023-09-19T01:16:42;15.60;99.90
19970;DHT22;10146;47.754;9.566;2023-09-19T01:22:18;15.50;99.90
19970;DHT22;10146;47.754;9.566;2023-09-19T01:25:07;15.50;99.90
19970;DHT22;10146;47.754;9.566;2023-09-19T01:30:18;15.40;99.90
19970;DHT22;10146;47.754;9.566;2023-09-19T01:32:49;15.40;99.90
19970;DHT22;10146;47.754;9.566;2023-09-19T01:35:18;15.40;99.90
19970;DHT22;10146;47.754;9.566;2023-09-19T01:37:44;15.30;99.90
19970;DHT22;10146;47.754;9.566;2023-09-19T01:40:13;15.30;99.90
19970;DHT22;10146;47.754;9.566;2023-09-19T01:42:50;15.30;99.90
19970;DHT22;10146;47.754;9.566;2023-09-19T01:45:50;15.30;99.90
19970;DHT22;10146;47.754;9.566;2023-09-19T01:48:41;15.30;99.90
19970;DHT22;10146;47.754;9.566;2023-09-19T01:51:14;15.40;99.90
19970;DHT22;10146;47.754;9.566;2023-09-19T01:53:53;15.40;99.90
19970;DHT22;10146;47.754;9.566;2023-09-19T01:56:35;15.50;99.90
19970;DHT22;10146;47.754;9.566;2023-09-19T01:59:07;15.60;99.90
19970;DHT22;10146;47.754;9.566;2023-09-19T02:01:34;15.70;99.90
19970;DHT22;10146;47.754;9.566;2023-09-19T02:04:02;15.70;99.90
19970;DHT22;10146;47.754;9.566;2023-09-19T02:06:28;15.70;99.90
19970;DHT22;10146;47.754;9.566;2023-09-19T02:08:54;15.80;99.90
19970;DHT22;10146;47.754;9.566;2023-09-19T02:11:20;15.90;99.90
19970;DHT22;10146;47.754;9.566;2023-09-19T02:13:45;15.90;99.90
19970;DHT22;10146;47.754;9.566;2023-09-19T02:16:11;15.90;99.90
19970;DHT22;10146;47.754;9.566;2023-09-19T02:18:38;15.90;99.90
19970;DHT22;10146;47.754;9.566;2023-09-19T02:21:04;15.90;99.90
19970;DHT22;10146;47.754;9.566;2023-09-19T02:23:32;15.90;99.90
19970;DHT22;10146;47.754;9.566;2023-09-19T02:25:59;15.90;99.90
19970;DHT22;10146;47.754;9.566;2023-09-19T02:28:26;15.90;99.90
19970;DHT22;10146;47.754;9.566;2023-09-19T02:30:56;15.90;99.90
19970;DHT22;10146;47.754;9.566;2023-09-19T02:33:22;15.90;99.90
19970;DHT22;10146;47.754;9.566;2023-09-19T02:35:47;15.90;99.90
19970;DHT22;10146;47.754;9.566;2023-09-19T02:38:13;15.90;99.90
19970;DHT22;10146;47.754;9.566;2023-09-19T02:40:40;15.90;99.90
19970;DHT22;10146;47.754;9.566;2023-09-19T02:43:05;15.90;99.90
19970;DHT22;10146;47.754;9.566;2023-09-19T02:45:32;15.90;99.90
19970;DHT22;10146;47.754;9.566;2023-09-19T02:47:58;15.90;99.90
19970;DHT22;10146;47.754;9.566;2023-09-19T02:50:23;15.80;99.90
19970;DHT22;10146;47.754;9.566;2023-09-19T02:52:49;15.90;99.90
19970;DHT22;10146;47.754;9.566;2023-09-19T02:55:16;15.90;99.90
19970;DHT22;10146;47.754;9.566;2023-09-19T02:57:52;15.80;99.90
19970;DHT22;10146;47.754;9.566;2023-09-19T03:00:20;15.80;99.90
19970;DHT22;10146;47.754;9.566;2023-09-19T03:02:47;15.80;99.90
19970;DHT22;10146;47.754;9.566;2023-09-19T03:05:13;15.80;99.90
19970;DHT22;10146;47.754;9.566;2023-09-19T03:07:39;15.80;99.90
19970;DHT22;10146;47.754;9.566;2023-09-19T03:10:06;15.80;99.90
19970;DHT22;10146;47.754;9.566;2023-09-19T03:12:33;15.80;99.90
19970;DHT22;10146;47.754;9.566;2023-09-19T03:14:59;15.70;99.90
19970;DHT22;10146;47.754;9.566;2023-09-19T03:17:25;15.70;99.90
19970;DHT22;10146;47.754;9.566;2023-09-19T03:19:50;15.60;99.90
19970;DHT22;10146;47.754;9.566;2023-09-19T03:22:16;15.70;99.90
19970;DHT22;10146;47.754;9.566;2023-09-19T03:24:42;15.60;99.90
19970;DHT22;10146;47.754;9.566;2023-09-19T03:27:12;15.60;99.90
19970;DHT22;10146;47.754;9.566;2023-09-19T03:29:44;15.70;99.90
19970;DHT22;10146;47.754;9.566;2023-09-19T03:32:10;15.70;99.90
19970;DHT22;10146;47.754;9.566;2023-09-19T03:34:37;15.60;99.90
19970;DHT22;10146;47.754;9.566;2023-09-19T03:37:06;15.60;99.90
19970;DHT22;10146;47.754;9.566;2023-09-19T03:39:32;15.60;99.90
19970;DHT22;10146;47.754;9.566;2023-09-19T03:41:58;15.60;99.90
19970;DHT22;10146;47.754;9.566;2023-09-19T03:44:23;15.60;99.90
19970;DHT22;10146;47.754;9.566;2023-09-19T03:46:49;15.60;99.90
19970;DHT22;10146;47.754;9.566;2023-09-19T03:49:14;15.70;99.90
19970;DHT22;10146;47.754;9.566;2023-09-19T03:51:40;15.60;99.90
19970;DHT22;10146;47.754;9.566;2023-09-19T03:54:07;15.60;99.90
19970;DHT22;10146;47.754;9.566;2023-09-19T03:56:33;15.60;99.90
19970;DHT22;10146;47.754;9.566;2023-09-19T03:58:58;15.60;99.90
19970;DHT22;10146;47.754;9.566;2023-09-19T04:01:24;15.60;99.90
19970;DHT22;10146;47.754;9.566;2023-09-19T04:03:50;15.60;99.90
19970;DHT22;10146;47.754;9.566;2023-09-19T04:06:17;15.70;99.90
19970;DHT22;10146;47.754;9.566;2023-09-19T04:08:43;15.70;99.90
19970;DHT22;10146;47.754;9.566;2023-09-19T04:11:09;15.60;99.90
19970;DHT22;10146;47.754;9.566;2023-09-19T04:13:35;15.60;99.90
19970;DHT22;10146;47.754;9.566;2023-09-19T04:16:01;15.60;99.90
19970;DHT22;10146;47.754;9.566;2023-09-19T04:18:29;15.60;99.90
19970;DHT22;10146;47.754;9.566;2023-09-19T04:20:58;15.50;99.90
19970;DHT22;10146;47.754;9.566;2023-09-19T04:23:23;15.40;99.90
19970;DHT22;10146;47.754;9.566;2023-09-19T04:25:49;15.30;99.90
19970;DHT22;10146;47.754;9.566;2023-09-19T04:28:15;15.30;99.90
19970;DHT22;10146;47.754;9.566;2023-09-19T04:30:41;15.30;99.90
19970;DHT22;10146;47.754;9.566;2023-09-19T04:33:07;15.20;99.90
19970;DHT22;10146;47.754;9.566;2023-09-19T04:35:33;15.20;99.90
19970;DHT22;10146;47.754;9.566;2023-09-19T04:37:59;15.20;99.90
19970;DHT22;10146;47.754;9.566;2023-09-19T04:40:25;15.10;99.90
19970;DHT22;10146;47.754;9.566;2023-09-19T04:42:58;15.10;99.90
19970;DHT22;10146;47.754;9.566;2023-09-19T04:45:27;15.10;99.90
19970;DHT22;10146;47.754;9.566;2023-09-19T04:47:54;15.20;99.90
19970;DHT22;10146;47.754;9.566;2023-09-19T04:50:20;15.20;99.90
19970;DHT22;10146;47.754;9.566;2023-09-19T04:52:49;15.20;99.90
19970;DHT22;10146;47.754;9.566;2023-09-19T04:55:17;15.20;99.90
19970;DHT22;10146;47.754;9.566;2023-09-19T04:57:47;15.20;99.90
19970;DHT22;10146;47.754;9.566;2023-09-19T05:00:15;15.20;99.90
19970;DHT22;10146;47.754;9.566;2023-09-19T05:02:42;15.30;99.90
19970;DHT22;10146;47.754;9.566;2023-09-19T05:05:09;15.30;99.90
19970;DHT22;10146;47.754;9.566;2023-09-19T05:07:41;15.20;99.90
19970;DHT22;10146;47.754;9.566;2023-09-19T05:10:08;15.20;99.90
19970;DHT22;10146;47.754;9.566;2023-09-19T05:12:37;15.20;99.90
19970;DHT22;10146;47.754;9.566;2023-09-19T05:15:06;15.20;99.90
19970;DHT22;10146;47.754;9.566;2023-09-19T05:17:33;15.30;99.90
19970;DHT22;10146;47.754;9.566;2023-09-19T05:20:00;15.30;99.90
19970;DHT22;10146;47.754;9.566;2023-09-19T05:22:41;15.30;99.90
19970;DHT22;10146;47.754;9.566;2023-09-19T05:25:07;15.40;99.90
19970;DHT22;10146;47.754;9.566;2023-09-19T05:27:32;15.40;99.90
19970;DHT22;10146;47.754;9.566;2023-09-19T05:29:59;15.40;99.90
19970;DHT22;10146;47.754;9.566;2023-09-19T05:32:25;15.40;99.90
19970;DHT22;10146;47.754;9.566;2023-09-19T05:34:51;15.50;99.90
19970;DHT22;10146;47.754;9.566;2023-09-19T05:37:22;15.50;99.90
19970;DHT22;10146;47.754;9.566;2023-09-19T05:39:49;15.50;99.90
19970;DHT22;10146;47.754;9.566;2023-09-19T05:42:14;15.50;99.90
19970;DHT22;10146;47.754;9.566;2023-09-19T05:44:40;15.50;99.90
19970;DHT22;10146;47.754;9.566;2023-09-19T05:47:05;15.60;99.90
19970;DHT22;10146;47.754;9.566;2023-09-19T05:49:35;15.60;99.90
19970;DHT22;10146;47.754;9.566;2023-09-19T05:52:06;15.60;99.90
19970;DHT22;10146;47.754;9.566;2023-09-19T05:54:32;15.70;99.90
19970;DHT22;10146;47.754;9.566;2023-09-19T05:57:00;15.70;99.90
19970;DHT22;10146;47.754;9.566;2023-09-19T05:59:25;15.80;99.90
19970;DHT22;10146;47.754;9.566;2023-09-19T06:01:51;15.80;99.90
19970;DHT22;10146;47.754;9.566;2023-09-19T06:04:17;15.90;99.90
19970;DHT22;10146;47.754;9.566;2023-09-19T06:06:44;15.90;99.90
19970;DHT22;10146;47.754;9.566;2023-09-19T06:09:10;16.00;99.90
19970;DHT22;10146;47.754;9.566;2023-09-19T06:11:36;16.00;99.90
19970;DHT22;10146;47.754;9.566;2023-09-19T06:14:02;16.10;99.90
19970;DHT22;10146;47.754;9.566;2023-09-19T06:16:29;16.10;99.90
19970;DHT22;10146;47.754;9.566;2023-09-19T06:18:55;16.10;99.90
19970;DHT22;10146;47.754;9.566;2023-09-19T06:21:22;16.10;99.90
19970;DHT22;10146;47.754;9.566;2023-09-19T06:23:48;16.20;99.90
19970;DHT22;10146;47.754;9.566;2023-09-19T06:26:13;16.20;99.90
19970;DHT22;10146;47.754;9.566;2023-09-19T06:28:40;16.30;99.90
19970;DHT22;10146;47.754;9.566;2023-09-19T06:31:06;16.40;99.90
19970;DHT22;10146;47.754;9.566;2023-09-19T06:33:35;16.50;99.90
19970;DHT22;10146;47.754;9.566;2023-09-19T06:36:04;16.60;99.90
19970;DHT22;10146;47.754;9.566;2023-09-19T06:38:30;16.70;99.90
19970;DHT22;10146;47.754;9.566;2023-09-19T06:40:57;16.70;99.90
19970;DHT22;10146;47.754;9.566;2023-09-19T06:43:23;16.80;99.90
19970;DHT22;10146;47.754;9.566;2023-09-19T06:45:49;17.00;99.90
19970;DHT22;10146;47.754;9.566;2023-09-19T06:48:17;17.10;99.90
19970;DHT22;10146;47.754;9.566;2023-09-19T06:50:43;17.20;99.90
19970;DHT22;10146;47.754;9.566;2023-09-19T06:53:10;17.20;99.90
19970;DHT22;10146;47.754;9.566;2023-09-19T06:55:36;17.40;99.90
19970;DHT22;10146;47.754;9.566;2023-09-19T06:58:02;17.40;99.90
19970;DHT22;10146;47.754;9.566;2023-09-19T07:00:27;17.40;99.90
19970;DHT22;10146;47.754;9.566;2023-09-19T07:03:01;17.40;99.90
19970;DHT22;10146;47.754;9.566;2023-09-19T07:05:33;17.40;99.90
19970;DHT22;10146;47.754;9.566;2023-09-19T07:07:59;17.40;99.90
19970;DHT22;10146;47.754;9.566;2023-09-19T07:10:29;17.40;99.90
19970;DHT22;10146;47.754;9.566;2023-09-19T07:13:05;17.40;99.90
19970;DHT22;10146;47.754;9.566;2023-09-19T07:15:38;17.40;99.90
19970;DHT22;10146;47.754;9.566;2023-09-19T07:18:15;17.30;99.90
19970;DHT22;10146;47.754;9.566;2023-09-19T07:20:46;17.30;99.90
19970;DHT22;10146;47.754;9.566;2023-09-19T07:23:21;17.30;99.90
19970;DHT22;10146;47.754;9.566;2023-09-19T07:25:51;17.30;99.90
19970;DHT22;10146;47.754;9.566;2023-09-19T07:28:17;17.30;99.90
19970;DHT22;10146;47.754;9.566;2023-09-19T07:30:43;17.30;99.90
19970;DHT22;10146;47.754;9.566;2023-09-19T07:33:09;17.30;99.90
19970;DHT22;10146;47.754;9.566;2023-09-19T07:35:38;17.40;99.90
19970;DHT22;10146;47.754;9.566;2023-09-19T07:38:07;17.40;99.90
19970;DHT22;10146;47.754;9.566;2023-09-19T07:40:33;17.50;99.90
19970;DHT22;10146;47.754;9.566;2023-09-19T07:42:58;17.60;99.90
19970;DHT22;10146;47.754;9.566;2023-09-19T07:45:30;17.70;99.90
19970;DHT22;10146;47.754;9.566;2023-09-19T07:47:56;17.70;99.90
19970;DHT22;10146;47.754;9.566;2023-09-19T07:50:22;17.70;99.90
19970;DHT22;10146;47.754;9.566;2023-09-19T07:52:49;17.80;99.90
19970;DHT22;10146;47.754;9.566;2023-09-19T07:55:19;17.80;99.90
19970;DHT22;10146;47.754;9.566;2023-09-19T07:57:48;17.80;99.90
19970;DHT22;10146;47.754;9.566;2023-09-19T08:00:15;17.80;99.90
19970;DHT22;10146;47.754;9.566;2023-09-19T08:02:42;17.90;99.90
19970;DHT22;10146;47.754;9.566;2023-09-19T08:05:09;18.00;99.90
19970;DHT22;10146;47.754;9.566;2023-09-19T08:07:38;18.10;99.90
19970;DHT22;10146;47.754;9.566;2023-09-19T08:10:08;18.10;99.90
19970;DHT22;10146;47.754;9.566;2023-09-19T08:12:37;18.10;99.90
19970;DHT22;10146;47.754;9.566;2023-09-19T08:15:03;18.10;99.90
19970;DHT22;10146;47.754;9.566;2023-09-19T08:17:34;18.20;99.90
19970;DHT22;10146;47.754;9.566;2023-09-19T08:20:00;18.30;99.90
19970;DHT22;10146;47.754;9.566;2023-09-19T08:22:26;18.40;99.90
19970;DHT22;10146;47.754;9.566;2023-09-19T08:24:52;18.40;99.90
19970;DHT22;10146;47.754;9.566;2023-09-19T08:27:18;18.30;99.90
19970;DHT22;10146;47.754;9.566;2023-09-19T08:29:44;18.40;99.90
19970;DHT22;10146;47.754;9.566;2023-09-19T08:32:11;18.30;99.90
19970;DHT22;10146;47.754;9.566;2023-09-19T08:34:37;18.30;99.90
19970;DHT22;10146;47.754;9.566;2023-09-19T08:37:03;18.40;99.90
19970;DHT22;10146;47.754;9.566;2023-09-19T08:39:30;18.50;99.90
19970;DHT22;10146;47.754;9.566;2023-09-19T08:41:59;18.60;99.90
19970;DHT22;10146;47.754;9.566;2023-09-19T08:44:25;18.60;99.90
19970;DHT22;10146;47.754;9.566;2023-09-19T08:46:55;18.60;99.90
19970;DHT22;10146;47.754;9.566;2023-09-19T08:49:30;18.70;99.90
19970;DHT22;10146;47.754;9.566;2023-09-19T08:52:16;18.80;99.90
19970;DHT22;10146;47.754;9.566;2023-09-19T08:54:42;19.00;99.90
19970;DHT22;10146;47.754;9.566;2023-09-19T08:57:10;19.30;99.90
19970;DHT22;10146;47.754;9.566;2023-09-19T08:59:39;19.60;99.90
19970;DHT22;10146;47.754;9.566;2023-09-19T09:02:16;19.70;99.90
19970;DHT22;10146;47.754;9.566;2023-09-19T09:04:45;19.60;99.90
19970;DHT22;10146;47.754;9.566;2023-09-19T09:07:12;19.60;99.90
19970;DHT22;10146;47.754;9.566;2023-09-19T09:09:42;19.50;99.90
19970;DHT22;10146;47.754;9.566;2023-09-19T09:12:11;19.60;99.90
19970;DHT22;10146;47.754;9.566;2023-09-19T09:14:38;19.80;99.90
19970;DHT22;10146;47.754;9.566;2023-09-19T09:17:03;20.10;99.90
19970;DHT22;10146;47.754;9.566;2023-09-19T09:19:30;20.30;99.90
19970;DHT22;10146;47.754;9.566;2023-09-19T09:22:09;20.40;99.90
19970;DHT22;10146;47.754;9.566;2023-09-19T09:24:34;20.40;99.90
19970;DHT22;10146;47.754;9.566;2023-09-19T09:27:04;20.20;99.90
19970;DHT22;10146;47.754;9.566;2023-09-19T09:29:46;20.00;99.90
19970;DHT22;10146;47.754;9.566;2023-09-19T09:32:28;19.90;99.90
19970;DHT22;10146;47.754;9.566;2023-09-19T09:34:56;19.90;99.90
19970;DHT22;10146;47.754;9.566;2023-09-19T09:37:22;20.00;99.90
19970;DHT22;10146;47.754;9.566;2023-09-19T09:39:54;19.90;99.90
19970;DHT22;10146;47.754;9.566;2023-09-19T09:42:33;19.90;99.90
19970;DHT22;10146;47.754;9.566;2023-09-19T09:45:25;19.70;99.90
19970;DHT22;10146;47.754;9.566;2023-09-19T09:48:00;19.70;99.90
19970;DHT22;10146;47.754;9.566;2023-09-19T09:50:34;19.60;99.90
19970;DHT22;10146;47.754;9.566;2023-09-19T09:53:27;19.70;99.90
19970;DHT22;10146;47.754;9.566;2023-09-19T09:56:04;19.70;99.90
19970;DHT22;10146;47.754;9.566;2023-09-19T09:58:51;19.60;99.90
19970;DHT22;10146;47.754;9.566;2023-09-19T10:01:21;19.70;99.90
19970;DHT22;10146;47.754;9.566;2023-09-19T10:03:57;19.80;99.90
19970;DHT22;10146;47.754;9.566;2023-09-19T10:06:23;19.90;99.90
19970;DHT22;10146;47.754;9.566;2023-09-19T10:09:18;19.90;99.90
19970;DHT22;10146;47.754;9.566;2023-09-19T10:12:00;19.80;99.90
19970;DHT22;10146;47.754;9.566;2023-09-19T10:14:30;19.80;99.90
19970;DHT22;10146;47.754;9.566;2023-09-19T10:16:58;19.90;99.90
19970;DHT22;10146;47.754;9.566;2023-09-19T10:19:46;19.90;99.90
19970;DHT22;10146;47.754;9.566;2023-09-19T10:22:19;20.00;99.90
19970;DHT22;10146;47.754;9.566;2023-09-19T10:24:49;19.90;99.90
19970;DHT22;10146;47.754;9.566;2023-09-19T10:27:19;20.10;99.90
19970;DHT22;10146;47.754;9.566;2023-09-19T10:29:49;20.30;99.90
19970;DHT22;10146;47.754;9.566;2023-09-19T10:32:21;20.50;99.90
19970;DHT22;10146;47.754;9.566;2023-09-19T10:34:49;20.70;99.90
19970;DHT22;10146;47.754;9.566;2023-09-19T10:37:16;20.90;99.90
19970;DHT22;10146;47.754;9.566;2023-09-19T10:39:46;21.00;99.90
19970;DHT22;10146;47.754;9.566;2023-09-19T10:42:16;20.90;99.90
19970;DHT22;10146;47.754;9.566;2023-09-19T10:44:42;21.00;99.90
19970;DHT22;10146;47.754;9.566;2023-09-19T10:47:10;21.10;99.90
19970;DHT22;10146;47.754;9.566;2023-09-19T10:49:44;21.10;99.90
19970;DHT22;10146;47.754;9.566;2023-09-19T10:52:13;20.90;99.90
19970;DHT22;10146;47.754;9.566;2023-09-19T10:54:46;20.80;99.90
19970;DHT22;10146;47.754;9.566;2023-09-19T10:57:21;20.60;99.90
19970;DHT22;10146;47.754;9.566;2023-09-19T11:00:08;20.50;99.90
19970;DHT22;10146;47.754;9.566;2023-09-19T11:05:40;20.30;99.90
19970;DHT22;10146;47.754;9.566;2023-09-19T11:08:10;20.20;99.90
19970;DHT22;10146;47.754;9.566;2023-09-19T11:10:50;20.20;99.90
19970;DHT22;10146;47.754;9.566;2023-09-19T11:13:29;20.30;99.90
19970;DHT22;10146;47.754;9.566;2023-09-19T11:16:03;20.40;99.90
19970;DHT22;10146;47.754;9.566;2023-09-19T11:26:50;20.90;99.90
19970;DHT22;10146;47.754;9.566;2023-09-19T11:29:30;21.00;99.90
19970;DHT22;10146;47.754;9.566;2023-09-19T11:31:57;21.00;99.90
19970;DHT22;10146;47.754;9.566;2023-09-19T11:37:03;20.90;99.90
19970;DHT22;10146;47.754;9.566;2023-09-19T11:40:07;20.80;99.90
19970;DHT22;10146;47.754;9.566;2023-09-19T11:48:18;21.10;99.90
19970;DHT22;10146;47.754;9.566;2023-09-19T11:50:45;21.20;99.90
19970;DHT22;10146;47.754;9.566;2023-09-19T11:53:12;21.20;99.90
19970;DHT22;10146;47.754;9.566;2023-09-19T11:55:39;21.30;99.90
19970;DHT22;10146;47.754;9.566;2023-09-19T11:58:07;21.20;99.90
19970;DHT22;10146;47.754;9.566;2023-09-19T12:00:34;21.10;99.90
19970;DHT22;10146;47.754;9.566;2023-09-19T12:03:08;21.10;99.90
19970;DHT22;10146;47.754;9.566;2023-09-19T12:05:34;21.00;99.90
19970;DHT22;10146;47.754;9.566;2023-09-19T12:08:00;21.00;99.90
19970;DHT22;10146;47.754;9.566;2023-09-19T12:10:27;21.10;99.90
19970;DHT22;10146;47.754;9.566;2023-09-19T12:12:53;21.40;99.90
19970;DHT22;10146;47.754;9.566;2023-09-19T12:15:25;21.80;99.90
19970;DHT22;10146;47.754;9.566;2023-09-19T12:18:00;21.90;99.90
19970;DHT22;10146;47.754;9.566;2023-09-19T12:20:43;21.80;99.90
19970;DHT22;10146;47.754;9.566;2023-09-19T12:23:14;21.80;99.90
19970;DHT22;10146;47.754;9.566;2023-09-19T12:25:42;21.80;99.90
19970;DHT22;10146;47.754;9.566;2023-09-19T12:28:12;22.00;99.90
19970;DHT22;10146;47.754;9.566;2023-09-19T12:30:38;22.20;99.90
19970;DHT22;10146;47.754;9.566;2023-09-19T12:33:18;22.40;99.90
19970;DHT22;10146;47.754;9.566;2023-09-19T12:35:45;22.50;99.90
19970;DHT22;10146;47.754;9.566;2023-09-19T12:38:11;22.40;99.90
19970;DHT22;10146;47.754;9.566;2023-09-19T12:40:38;22.40;99.90
19970;DHT22;10146;47.754;9.566;2023-09-19T12:43:08;22.60;99.90
19970;DHT22;10146;47.754;9.566;2023-09-19T12:45:35;22.80;99.90
19970;DHT22;10146;47.754;9.566;2023-09-19T12:48:22;22.70;99.90
19970;DHT22;10146;47.754;9.566;2023-09-19T12:51:13;22.50;99.90
19970;DHT22;10146;47.754;9.566;2023-09-19T12:53:39;22.80;99.90
19970;DHT22;10146;47.754;9.566;2023-09-19T12:56:06;23.00;99.90
19970;DHT22;10146;47.754;9.566;2023-09-19T12:58:32;23.10;99.90
19970;DHT22;10146;47.754;9.566;2023-09-19T13:01:00;23.20;99.90
19970;DHT22;10146;47.754;9.566;2023-09-19T13:03:30;23.00;99.90
19970;DHT22;10146;47.754;9.566;2023-09-19T13:06:02;22.90;99.90
19970;DHT22;10146;47.754;9.566;2023-09-19T13:08:33;22.90;99.90
19970;DHT22;10146;47.754;9.566;2023-09-19T13:11:21;23.00;99.90
19970;DHT22;10146;47.754;9.566;2023-09-19T13:17:03;23.50;99.90
19970;DHT22;10146;47.754;9.566;2023-09-19T13:22:39;23.20;99.90
19970;DHT22;10146;47.754;9.566;2023-09-19T13:25:13;23.30;99.90
19970;DHT22;10146;47.754;9.566;2023-09-19T13:27:53;23.60;99.90
19970;DHT22;10146;47.754;9.566;2023-09-19T13:30:21;23.80;99.90
19970;DHT22;10146;47.754;9.566;2023-09-19T13:32:47;23.70;99.90
19970;DHT22;10146;47.754;9.566;2023-09-19T13:35:14;23.80;99.90
19970;DHT22;10146;47.754;9.566;2023-09-19T13:37:41;24.00;99.90
19970;DHT22;10146;47.754;9.566;2023-09-19T13:40:12;24.10;99.90
19970;DHT22;10146;47.754;9.566;2023-09-19T13:42:38;24.20;99.90
19970;DHT22;10146;47.754;9.566;2023-09-19T13:45:04;24.40;99.90
19970;DHT22;10146;47.754;9.566;2023-09-19T13:47:31;24.60;99.90
19970;DHT22;10146;47.754;9.566;2023-09-19T13:49:58;24.60;99.90
19970;DHT22;10146;47.754;9.566;2023-09-19T13:52:24;24.70;99.90
19970;DHT22;10146;47.754;9.566;2023-09-19T13:54:54;24.80;99.90
19970;DHT22;10146;47.754;9.566;2023-09-19T13:57:22;24.80;99.90
19970;DHT22;10146;47.754;9.566;2023-09-19T13:59:48;24.80;99.90
19970;DHT22;10146;47.754;9.566;2023-09-19T14:02:14;24.90;99.90
19970;DHT22;10146;47.754;9.566;2023-09-19T14:04:40;25.00;99.90
19970;DHT22;10146;47.754;9.566;2023-09-19T14:07:06;25.10;99.90
19970;DHT22;10146;47.754;9.566;2023-09-19T14:09:33;25.20;99.90
19970;DHT22;10146;47.754;9.566;2023-09-19T14:11:59;25.20;99.90
19970;DHT22;10146;47.754;9.566;2023-09-19T14:14:25;25.30;99.90
19970;DHT22;10146;47.754;9.566;2023-09-19T14:16:51;25.30;99.90
19970;DHT22;10146;47.754;9.566;2023-09-19T14:19:20;25.30;99.90
19970;DHT22;10146;47.754;9.566;2023-09-19T14:21:46;25.40;99.90
19970;DHT22;10146;47.754;9.566;2023-09-19T14:24:17;25.70;99.90
19970;DHT22;10146;47.754;9.566;2023-09-19T14:26:43;25.70;99.90
19970;DHT22;10146;47.754;9.566;2023-09-19T14:29:08;25.80;99.90
19970;DHT22;10146;47.754;9.566;2023-09-19T14:31:37;25.90;99.90
19970;DHT22;10146;47.754;9.566;2023-09-19T14:34:05;25.90;99.90
19970;DHT22;10146;47.754;9.566;2023-09-19T14:36:31;26.10;99.90
19970;DHT22;10146;47.754;9.566;2023-09-19T14:38:58;26.20;99.90
19970;DHT22;10146;47.754;9.566;2023-09-19T14:41:24;26.20;99.80
19970;DHT22;10146;47.754;9.566;2023-09-19T14:43:51;26.40;99.60
19970;DHT22;10146;47.754;9.566;2023-09-19T14:46:17;26.60;98.90
19970;DHT22;10146;47.754;9.566;2023-09-19T14:48:44;26.70;98.40
19970;DHT22;10146;47.754;9.566;2023-09-19T14:51:12;26.80;98.30
19970;DHT22;10146;47.754;9.566;2023-09-19T14:53:39;26.90;97.70
19970;DHT22;10146;47.754;9.566;2023-09-19T14:56:06;26.90;97.10
19970;DHT22;10146;47.754;9.566;2023-09-19T14:58:33;27.50;95.90
19970;DHT22;10146;47.754;9.566;2023-09-19T15:01:05;27.90;94.90
19970;DHT22;10146;47.754;9.566;2023-09-19T15:03:34;28.70;93.50
19970;DHT22;10146;47.754;9.566;2023-09-19T15:06:05;29.30;91.60
19970;DHT22;10146;47.754;9.566;2023-09-19T15:08:34;29.50;90.20
19970;DHT22;10146;47.754;9.566;2023-09-19T15:11:03;29.60;89.30
19970;DHT22;10146;47.754;9.566;2023-09-19T15:13:31;29.70;89.30
19970;DHT22;10146;47.754;9.566;2023-09-19T15:16:04;29.60;87.20
19970;DHT22;10146;47.754;9.566;2023-09-19T15:18:34;28.90;88.40
19970;DHT22;10146;47.754;9.566;2023-09-19T15:21:03;27.90;90.00
19970;DHT22;10146;47.754;9.566;2023-09-19T15:23:30;26.90;91.60
19970;DHT22;10146;47.754;9.566;2023-09-19T15:25:57;26.20;92.80
19970;DHT22;10146;47.754;9.566;2023-09-19T15:28:22;25.30;94.40
19970;DHT22;10146;47.754;9.566;2023-09-19T15:30:49;24.90;96.60
19970;DHT22;10146;47.754;9.566;2023-09-19T15:33:15;24.40;97.10
19970;DHT22;10146;47.754;9.566;2023-09-19T15:35:40;24.20;97.10
19970;DHT22;10146;47.754;9.566;2023-09-19T15:38:07;24.00;98.90
19970;DHT22;10146;47.754;9.566;2023-09-19T15:40:33;23.80;99.40
19970;DHT22;10146;47.754;9.566;2023-09-19T15:42:59;23.70;99.30
19970;DHT22;10146;47.754;9.566;2023-09-19T15:45:25;23.60;99.30
19970;DHT22;10146;47.754;9.566;2023-09-19T15:47:51;23.40;99.90
19970;DHT22;10146;47.754;9.566;2023-09-19T15:50:17;23.20;99.90
19970;DHT22;10146;47.754;9.566;2023-09-19T15:52:43;23.20;99.90
19970;DHT22;10146;47.754;9.566;2023-09-19T15:55:08;23.10;99.90
19970;DHT22;10146;47.754;9.566;2023-09-19T15:57:36;22.90;99.90
19970;DHT22;10146;47.754;9.566;2023-09-19T16:00:03;22.80;99.90
19970;DHT22;10146;47.754;9.566;2023-09-19T16:02:36;22.50;99.90
19970;DHT22;10146;47.754;9.566;2023-09-19T16:05:02;22.30;99.90
19970;DHT22;10146;47.754;9.566;2023-09-19T16:07:32;22.20;99.90
19970;DHT22;10146;47.754;9.566;2023-09-19T16:09:59;22.10;99.90
19970;DHT22;10146;47.754;9.566;2023-09-19T16:12:25;21.90;99.90
19970;DHT22;10146;47.754;9.566;2023-09-19T16:14:51;21.80;99.90